Time;durP1;ratioP1;P1;durP2;ratioP2;P2;SDS_P1;SDS_P2;PMS_P1;PMS_P2;Temp;Humidity;BMP_temperature;BMP_pressure;BME280_temperature;BME280_humidity;BME280_pressure;Samples;Min_cycle;Max_cycle;Signal;HPM_P1;HPM_P2
2021/09/23 00:04:16;;;;;;;;;;;9.60;99.90;;;8.28;100.00;96480.16;10461703;28;2073;-75
2021/09/23 00:09:19;;;;;;;;;;;9.50;99.90;;;8.14;100.00;96473.47;10448675;28;2048;-76
2021/09/23 00:14:21;;;;;;;;;;;9.40;99.90;;;8.24;100.00;96464.81;10442609;28;2007;-75
2021/09/23 00:19:24;;;;;;;;;;;9.40;99.90;;;8.24;100.00;96457.59;10440932;28;2104;-73
2021/09/23 00:24:27;;;;;;;;;;;9.50;99.90;;;8.31;100.00;96452.06;10430454;28;1997;-76
2021/09/23 00:29:30;;;;;;;;;;;9.50;99.90;;;8.31;100.00;96446.72;10449610;28;1900;-75
2021/09/23 00:34:33;;;;;;;;;;;9.50;99.90;;;8.27;100.00;96437.53;10445744;28;2021;-75
2021/09/23 00:39:36;;;;;;;;;;;9.50;99.90;;;8.19;100.00;96424.53;10449892;28;2092;-76
2021/09/23 00:44:39;;;;;;;;;;;9.50;99.90;;;8.08;100.00;96427.06;10443372;28;2183;-75
2021/09/23 00:49:43;;;;;;;;;;;9.30;99.90;;;8.10;100.00;96424.94;10450223;28;1836;-74
2021/09/23 00:54:46;;;;;;;;;;;9.30;99.90;;;8.00;100.00;96435.47;10448619;28;2057;-75
2021/09/23 00:59:49;;;;;;;;;;;9.30;99.90;;;7.90;100.00;96429.16;10451573;28;1968;-74
2021/09/23 01:04:52;;;;;;;;;;;9.20;99.90;;;7.84;100.00;96426.38;10435565;28;2065;-74
2021/09/23 01:09:55;;;;;;;;;;;9.10;99.90;;;7.78;100.00;96434.53;10441786;28;2114;-75
2021/09/23 01:15:00;;;;;;;;;;;9.10;99.90;;;7.90;100.00;96429.16;10448373;28;2169;-74
2021/09/23 01:20:04;;;;;;;;;;;9.10;99.90;;;7.85;100.00;96424.50;10430333;28;2167;-76
2021/09/23 01:25:07;;;;;;;;;;;9.10;99.90;;;7.91;100.00;96426.22;10440735;28;2135;-76
2021/09/23 01:30:16;;;;;;;;;;;9.10;99.90;;;7.76;100.00;96433.94;10444324;28;2326;-76
2021/09/23 01:35:19;;;;;;;;;;;9.10;99.90;;;7.84;100.00;96426.38;10442179;28;2119;-76
2021/09/23 01:40:22;;;;;;;;;;;9.10;99.90;;;7.90;100.00;96426.47;10446596;28;2159;-76
2021/09/23 01:45:25;;;;;;;;;;;9.00;99.90;;;7.93;100.00;96434.81;10445852;28;2116;-75
2021/09/23 01:50:28;;;;;;;;;;;9.10;99.90;;;7.84;100.00;96423.69;10423955;28;2040;-75
2021/09/23 01:55:31;;;;;;;;;;;9.10;99.90;;;7.75;100.00;96426.97;10445826;28;2091;-75
2021/09/23 02:00:34;;;;;;;;;;;9.00;99.90;;;7.69;100.00;96422.59;10443289;28;2080;-75
2021/09/23 02:05:37;;;;;;;;;;;8.90;99.90;;;7.61;100.00;96415.75;10442343;28;2096;-75
2021/09/23 02:10:40;;;;;;;;;;;8.90;99.90;;;7.54;100.00;96415.91;10438889;28;2037;-75
2021/09/23 02:15:43;;;;;;;;;;;8.80;99.90;;;7.55;100.00;96406.81;10441041;28;1973;-75
2021/09/23 02:20:46;;;;;;;;;;;8.80;99.90;;;7.60;100.00;96406.13;10429294;28;2029;-75
2021/09/23 02:25:49;;;;;;;;;;;8.80;99.90;;;7.58;100.00;96401.00;10443240;28;2104;-75
2021/09/23 02:30:52;;;;;;;;;;;8.80;99.90;;;7.54;100.00;96401.72;10443664;28;1841;-76
2021/09/23 02:35:55;;;;;;;;;;;8.80;99.90;;;7.41;100.00;96381.41;10430800;28;1985;-75
2021/09/23 02:40:58;;;;;;;;;;;8.70;99.90;;;7.34;100.00;96375.38;10444343;28;2097;-75
2021/09/23 02:46:01;;;;;;;;;;;8.60;99.90;;;7.35;100.00;96374.34;10438306;28;2030;-75
2021/09/23 02:51:06;;;;;;;;;;;8.60;99.90;;;7.25;100.00;96368.78;10441693;28;1855;-76
2021/09/23 02:56:09;;;;;;;;;;;8.50;99.90;;;7.28;100.00;96362.97;10438140;28;2002;-75
2021/09/23 03:01:12;;;;;;;;;;;8.50;99.90;;;7.32;100.00;96361.47;10441665;28;2041;-76
2021/09/23 03:06:15;;;;;;;;;;;8.50;99.90;;;7.30;100.00;96363.53;10440840;28;2068;-75
2021/09/23 03:11:18;;;;;;;;;;;8.60;99.90;;;7.35;100.00;96352.94;10442864;28;2033;-75
2021/09/23 03:16:21;;;;;;;;;;;8.60;99.90;;;7.40;100.00;96350.38;10439468;28;2080;-76
2021/09/23 03:21:24;;;;;;;;;;;8.60;99.90;;;7.41;100.00;96341.28;10442878;28;2052;-76
2021/09/23 03:26:27;;;;;;;;;;;8.60;99.90;;;7.43;100.00;96333.81;10442172;28;2025;-75
2021/09/23 03:31:30;;;;;;;;;;;8.60;99.90;;;7.47;100.00;96334.16;10443106;28;2336;-76
2021/09/23 03:36:33;;;;;;;;;;;8.60;99.90;;;7.32;100.00;96327.50;10439834;28;2026;-76
2021/09/23 03:41:36;;;;;;;;;;;8.60;99.90;;;7.29;100.00;96319.94;10441559;28;2077;-75
2021/09/23 03:46:39;;;;;;;;;;;8.50;99.90;;;7.37;100.00;96312.56;10439715;28;2033;-75
2021/09/23 03:51:41;;;;;;;;;;;8.50;99.90;;;7.34;100.00;96308.53;10442400;28;2134;-76
2021/09/23 03:56:44;;;;;;;;;;;8.50;99.90;;;7.28;100.00;96309.50;10440030;28;2033;-75
2021/09/23 04:01:49;;;;;;;;;;;8.50;99.90;;;7.19;100.00;96305.56;10438152;28;1920;-75
2021/09/23 04:06:52;;;;;;;;;;;8.50;99.90;;;7.23;100.00;96296.81;10440435;28;2037;-75
2021/09/23 04:11:55;;;;;;;;;;;8.40;99.90;;;7.25;100.00;96283.22;10428867;28;1872;-75
2021/09/23 04:16:58;;;;;;;;;;;8.40;99.90;;;7.24;100.00;96289.63;10441010;28;2104;-74
2021/09/23 04:22:01;;;;;;;;;;;8.50;99.90;;;7.15;100.00;96277.69;10441781;28;2025;-75
2021/09/23 04:27:04;;;;;;;;;;;8.40;99.90;;;7.25;100.00;96277.88;10443348;28;2056;-74
2021/09/23 04:32:07;;;;;;;;;;;8.40;99.90;;;7.23;100.00;96264.75;10448846;28;1945;-75
2021/09/23 04:37:10;;;;;;;;;;;8.40;99.90;;;7.23;100.00;96259.41;10447264;28;1998;-74
2021/09/23 04:42:11;;;;;;;;;;;8.50;99.90;;;7.28;100.00;96258.69;10448813;28;1841;-75
2021/09/23 04:47:14;;;;;;;;;;;8.50;99.90;;;7.16;100.00;96253.38;10454442;28;2100;-74
2021/09/23 04:52:17;;;;;;;;;;;8.40;99.90;;;7.20;100.00;96245.72;10457503;28;1971;-76
2021/09/23 04:57:21;;;;;;;;;;;8.40;99.90;;;7.28;100.00;96245.31;10435759;28;2096;-74
2021/09/23 05:02:23;;;;;;;;;;;8.40;99.90;;;7.31;100.00;96224.22;10446770;28;1876;-74
2021/09/23 05:07:27;;;;;;;;;;;8.50;99.90;;;7.21;100.00;96223.25;10443797;28;2186;-74
2021/09/23 05:12:30;;;;;;;;;;;8.40;99.90;;;7.25;100.00;96224.38;10440019;28;3257;-75
2021/09/23 05:17:33;;;;;;;;;;;8.40;99.90;;;7.34;100.00;96212.25;10448983;28;2394;-74
2021/09/23 05:22:36;;;;;;;;;;;8.50;99.90;;;7.52;100.00;96201.31;10454382;28;2445;-74
2021/09/23 05:27:39;;;;;;;;;;;8.60;99.90;;;7.55;100.00;96218.75;10446533;28;2333;-76
2021/09/23 05:32:42;;;;;;;;;;;8.60;99.90;;;7.72;100.00;96202.69;10446559;28;1910;-75
2021/09/23 05:37:45;;;;;;;;;;;8.70;99.90;;;7.86;100.00;96203.97;10448170;28;1825;-76
2021/09/23 05:42:48;;;;;;;;;;;8.80;99.90;;;7.98;100.00;96202.00;10455241;28;1981;-75
2021/09/23 05:47:51;;;;;;;;;;;8.90;99.90;;;8.11;100.00;96190.94;10444797;28;2338;-76
2021/09/23 05:52:55;;;;;;;;;;;9.10;99.90;;;8.19;100.00;96191.56;10458841;28;2109;-75
2021/09/23 05:57:58;;;;;;;;;;;9.20;99.90;;;8.38;100.00;96184.88;10419595;28;2091;-76
2021/09/23 06:03:01;;;;;;;;;;;9.30;99.90;;;8.59;100.00;96178.72;10447785;28;1916;-76
2021/09/23 06:08:04;;;;;;;;;;;9.50;99.90;;;8.76;100.00;96178.59;10440597;28;2064;-76
2021/09/23 06:13:07;;;;;;;;;;;9.60;99.90;;;8.94;98.12;96178.25;10448880;28;2084;-73
2021/09/23 06:18:10;;;;;;;;;;;9.80;99.90;;;9.11;96.88;96175.47;10481464;28;2288;-73
2021/09/23 06:23:13;;;;;;;;;;;10.00;99.90;;;9.34;95.72;96174.31;10472693;28;2077;-73
2021/09/23 06:28:16;;;;;;;;;;;10.10;99.90;;;9.55;94.57;96166.47;10485029;28;1971;-74
2021/09/23 06:33:18;;;;;;;;;;;10.40;99.90;;;9.78;93.00;96162.56;10493866;28;2056;-76
2021/09/23 06:38:21;;;;;;;;;;;10.50;99.90;;;10.02;90.46;96177.22;10460362;28;2060;-76
2021/09/23 06:43:24;;;;;;;;;;;10.70;99.90;;;10.16;89.97;96175.69;10461588;28;2046;-78
2021/09/23 06:48:27;;;;;;;;;;;10.90;99.90;;;10.26;89.27;96173.09;10454383;28;2385;-78
2021/09/23 06:53:30;;;;;;;;;;;11.00;99.90;;;10.49;88.90;96176.41;10452465;28;1910;-76
2021/09/23 06:58:33;;;;;;;;;;;11.20;99.90;;;10.71;87.95;96165.47;10457033;28;2092;-76
2021/09/23 07:03:36;;;;;;;;;;;11.40;99.90;;;10.90;86.84;96171.97;10454735;28;2093;-76
2021/09/23 07:08:40;;;;;;;;;;;11.60;99.90;;;11.06;85.87;96165.53;10453636;28;2053;-76
2021/09/23 07:13:44;;;;;;;;;;;11.70;99.90;;;11.22;85.29;96162.88;10464251;28;1979;-76
2021/09/23 07:18:47;;;;;;;;;;;11.90;99.90;;;11.29;84.44;96153.47;10474376;28;1519;-76
2021/09/23 07:23:50;;;;;;;;;;;12.10;99.90;;;11.49;83.25;96158.03;10484998;28;1865;-77
2021/09/23 07:28:53;;;;;;;;;;;12.30;99.90;;;11.66;82.58;96152.38;10494561;28;1911;-77
2021/09/23 07:33:56;;;;;;;;;;;12.40;99.90;;;11.73;81.36;96131.38;10477304;28;2060;-75
2021/09/23 07:38:59;;;;;;;;;;;12.60;99.90;;;11.93;80.92;96124.34;10469107;28;2032;-76
2021/09/23 07:44:02;;;;;;;;;;;12.80;99.90;;;12.11;79.54;96116.50;10471216;28;1824;-77
2021/09/23 07:49:05;;;;;;;;;;;12.90;99.90;;;12.22;78.99;96116.47;10461084;28;2053;-80
2021/09/23 07:54:08;;;;;;;;;;;13.00;99.90;;;12.43;79.83;96118.78;10484720;28;2013;-79
2021/09/23 07:59:11;;;;;;;;;;;13.20;99.90;;;12.73;78.52;96117.03;10473479;28;1977;-78
2021/09/23 08:04:14;;;;;;;;;;;13.40;99.90;;;12.84;76.72;96113.16;10454330;28;1865;-78
2021/09/23 08:09:17;;;;;;;;;;;13.60;99.90;;;13.17;75.92;96110.81;10463238;28;1848;-80
2021/09/23 08:14:20;;;;;;;;;;;13.80;99.90;;;13.37;75.81;96107.97;10455556;28;1891;-79
2021/09/23 08:19:23;;;;;;;;;;;14.00;99.90;;;13.37;74.24;96116.06;10453493;28;1785;-80
2021/09/23 08:24:26;;;;;;;;;;;14.30;99.90;;;13.69;73.97;96112.03;10459089;28;1998;-79
2021/09/23 08:29:29;;;;;;;;;;;14.40;99.90;;;13.72;73.70;96106.03;10472370;28;1972;-80
2021/09/23 08:34:32;;;;;;;;;;;14.60;99.90;;;14.07;72.38;96113.78;10477977;28;2053;-80
2021/09/23 08:39:35;;;;;;;;;;;14.80;99.90;;;14.13;69.07;96106.41;10475089;28;1945;-80
2021/09/23 08:44:40;;;;;;;;;;;14.90;99.90;;;14.22;69.17;96109.28;10492884;28;1440;-80
2021/09/23 08:49:43;;;;;;;;;;;15.00;99.90;;;14.54;67.69;96106.75;10481811;28;2133;-80
2021/09/23 08:54:46;;;;;;;;;;;15.20;99.90;;;14.55;67.52;96119.19;10447057;28;1988;-80
2021/09/23 08:59:49;;;;;;;;;;;15.40;99.90;;;14.69;67.61;96119.25;10468384;28;1722;-79
2021/09/23 09:04:52;;;;;;;;;;;15.50;99.90;;;14.98;66.73;96111.03;10481032;28;1922;-79
2021/09/23 09:09:55;;;;;;;;;;;15.60;99.90;;;15.09;66.32;96098.94;10469257;28;2212;-79
2021/09/23 09:14:58;;;;;;;;;;;15.90;99.90;;;15.49;63.90;96096.69;10465038;28;1882;-78
2021/09/23 09:20:02;;;;;;;;;;;16.10;99.90;;;15.67;63.44;96095.06;10460082;28;1982;-80
2021/09/23 09:25:05;;;;;;;;;;;16.30;99.90;;;15.96;63.28;96081.22;10452033;28;1980;-81
2021/09/23 09:30:09;;;;;;;;;;;16.60;99.90;;;16.14;60.56;96076.81;10458699;28;1828;-80
2021/09/23 09:35:12;;;;;;;;;;;16.90;99.90;;;16.08;60.95;96076.13;10471943;28;1960;-79
2021/09/23 09:40:15;;;;;;;;;;;16.90;99.90;;;16.40;60.98;96074.41;10466322;28;1876;-79
2021/09/23 09:45:18;;;;;;;;;;;17.10;99.90;;;16.61;60.52;96069.38;10472021;28;2347;-79
2021/09/23 09:50:21;;;;;;;;;;;17.30;99.90;;;16.69;58.99;96071.34;10460288;28;2031;-79
2021/09/23 09:55:24;;;;;;;;;;;17.40;99.90;;;16.86;58.39;96065.28;10445084;28;2053;-80
2021/09/23 10:00:26;;;;;;;;;;;17.50;99.90;;;16.97;58.07;96061.25;10464682;28;2100;-80
2021/09/23 10:05:29;;;;;;;;;;;17.60;99.90;;;17.09;57.17;96053.34;10462619;28;2092;-80
2021/09/23 10:10:32;;;;;;;;;;;17.70;99.90;;;17.15;56.96;96040.44;10462932;28;2304;-80
2021/09/23 10:15:35;;;;;;;;;;;17.90;99.90;;;17.37;54.20;96043.19;10458221;28;2103;-77
2021/09/23 10:20:38;;;;;;;;;;;18.00;99.90;;;17.37;56.00;96040.47;10459846;28;1962;-80
2021/09/23 10:25:41;;;;;;;;;;;18.10;99.90;;;17.47;57.01;96021.16;10447118;28;2091;-80
2021/09/23 10:30:44;;;;;;;;;;;18.20;99.90;;;17.57;56.05;96025.53;10447453;28;2025;-78
2021/09/23 10:35:48;;;;;;;;;;;18.30;99.90;;;17.74;54.28;96022.91;10477196;28;1890;-79
2021/09/23 10:40:50;;;;;;;;;;;18.30;99.90;;;17.72;53.47;96025.16;10473857;28;1754;-80
2021/09/23 10:45:54;;;;;;;;;;;18.40;99.90;;;17.65;52.47;96021.25;10480710;28;2399;-79
2021/09/23 10:50:57;;;;;;;;;;;18.50;99.90;;;17.86;54.08;96016.09;10478486;28;1942;-78
2021/09/23 10:55:59;;;;;;;;;;;18.60;99.90;;;17.80;49.30;96016.22;10487678;28;1957;-77
2021/09/23 11:01:03;;;;;;;;;;;18.70;99.90;;;17.95;50.22;96009.59;10474461;28;2118;-79
2021/09/23 11:06:06;;;;;;;;;;;18.70;99.90;;;18.01;49.85;96012.97;10461087;28;1738;-78
2021/09/23 11:11:09;;;;;;;;;;;18.80;99.90;;;17.95;49.19;96006.06;10474999;28;2083;-77
2021/09/23 11:16:12;;;;;;;;;;;18.90;99.90;;;18.09;51.16;95998.59;10475741;28;2131;-79
2021/09/23 11:21:15;;;;;;;;;;;18.80;99.90;;;18.31;48.46;95981.34;10457553;28;1829;-78
2021/09/23 11:26:18;;;;;;;;;;;19.00;99.90;;;18.41;47.57;95988.41;10449177;28;2029;-80
2021/09/23 11:31:21;;;;;;;;;;;19.10;99.90;;;18.22;47.66;95978.59;10444610;28;2064;-81
2021/09/23 11:36:24;;;;;;;;;;;19.10;99.90;;;18.43;47.37;95976.06;10459884;28;2119;-79
2021/09/23 11:41:27;;;;;;;;;;;19.10;99.90;;;18.36;47.00;95973.03;10459425;28;2069;-81
2021/09/23 11:46:30;;;;;;;;;;;19.20;99.90;;;18.45;47.50;95976.56;10446540;28;1947;-81
2021/09/23 11:51:33;;;;;;;;;;;19.30;99.90;;;18.53;47.44;95983.16;10458842;28;2048;-80
2021/09/23 11:56:36;;;;;;;;;;;19.30;99.90;;;18.57;46.94;95978.66;10440212;28;2085;-80
2021/09/23 12:01:39;;;;;;;;;;;19.40;99.90;;;18.43;45.72;95965.19;10467589;28;2025;-80
2021/09/23 12:06:42;;;;;;;;;;;19.40;99.90;;;18.53;46.48;95958.66;10463923;28;2052;-80
2021/09/23 12:11:45;;;;;;;;;;;19.40;99.90;;;18.69;45.25;95951.63;10461166;28;2025;-80
2021/09/23 12:16:48;;;;;;;;;;;19.40;99.90;;;18.64;45.64;95944.41;10476133;28;2034;-81
2021/09/23 12:21:51;;;;;;;;;;;19.50;99.90;;;18.85;45.25;95941.84;10483230;28;2088;-80
2021/09/23 12:26:54;;;;;;;;;;;19.60;99.90;;;19.09;45.83;95932.38;10468316;28;1960;-80
2021/09/23 12:31:57;;;;;;;;;;;19.80;99.90;;;19.25;44.84;95911.63;10494969;28;1973;-81
2021/09/23 12:37:00;;;;;;;;;;;20.00;99.90;;;19.34;44.69;95897.97;10496916;28;1968;-80
2021/09/23 12:42:03;;;;;;;;;;;20.00;99.90;;;19.34;44.67;95887.06;10477538;28;2037;-77
2021/09/23 12:47:06;;;;;;;;;;;20.10;99.90;;;19.48;44.65;95874.03;10474526;28;1989;-78
2021/09/23 12:52:10;;;;;;;;;;;20.20;99.90;;;19.56;44.35;95864.19;10466671;28;2191;-77
2021/09/23 12:57:12;;;;;;;;;;;20.30;99.90;;;19.40;45.51;95864.78;10464860;28;2114;-78
2021/09/23 13:02:16;;;;;;;;;;;20.40;99.90;;;19.44;45.59;95857.50;10477172;28;1832;-78
2021/09/23 13:07:20;;;;;;;;;;;20.30;99.90;;;19.42;46.21;95858.97;10471447;28;1951;-79
2021/09/23 13:12:23;;;;;;;;;;;20.30;99.90;;;19.52;46.88;95847.69;10484613;28;2001;-77
2021/09/23 13:17:27;;;;;;;;;;;20.40;99.90;;;19.37;47.39;95848.25;10499833;28;1886;-78
2021/09/23 13:22:30;;;;;;;;;;;20.40;99.90;;;19.23;47.54;95840.31;10495978;28;1860;-79
2021/09/23 13:27:33;;;;;;;;;;;20.20;99.90;;;19.05;49.44;95834.13;10496046;28;1928;-81
2021/09/23 13:32:37;;;;;;;;;;;20.00;99.90;;;18.96;48.81;95835.25;10483954;28;2013;-79
2021/09/23 13:37:40;;;;;;;;;;;19.90;99.90;;;19.27;50.05;95835.78;10488724;28;2042;-83
2021/09/23 13:42:42;;;;;;;;;;;20.00;99.90;;;19.22;49.63;95825.09;10482235;28;3798;-82
2021/09/23 13:47:46;;;;;;;;;;;20.10;99.90;;;19.27;50.74;95816.72;10477076;28;1894;-82
2021/09/23 13:52:49;;;;;;;;;;;20.10;99.90;;;19.28;49.59;95804.69;10477406;28;1867;-79
2021/09/23 13:57:52;;;;;;;;;;;20.10;99.90;;;19.33;49.33;95801.75;10456101;28;2001;-83
2021/09/23 14:02:55;;;;;;;;;;;20.10;99.90;;;19.32;48.88;95807.56;10469000;28;2037;-83
2021/09/23 14:07:58;;;;;;;;;;;20.20;99.90;;;19.22;47.42;95818.84;10456367;28;2099;-78
2021/09/23 14:13:01;;;;;;;;;;;20.10;99.90;;;19.41;44.46;95805.59;10437469;28;2293;-77
2021/09/23 14:18:04;;;;;;;;;;;20.20;99.90;;;19.43;44.13;95808.78;10460213;28;2136;-79
2021/09/23 14:23:14;;;;;;;;;;;20.40;99.90;;;19.38;45.52;95809.75;10436327;28;1959;-77
2021/09/23 14:28:17;;;;;;;;;;;20.30;99.90;;;19.34;46.54;95803.38;10453084;28;2319;-78
2021/09/23 14:33:20;;;;;;;;;;;20.30;99.90;;;19.36;47.46;95795.66;10462229;28;1728;-78
2021/09/23 14:38:23;;;;;;;;;;;20.30;99.90;;;19.24;49.56;95798.28;10465763;28;1910;-78
2021/09/23 14:43:26;;;;;;;;;;;20.30;99.90;;;19.28;50.43;95796.53;10447960;28;2037;-78
2021/09/23 14:48:29;;;;;;;;;;;20.30;99.90;;;19.33;50.67;95799.03;10448347;28;1951;-78
2021/09/23 14:53:32;;;;;;;;;;;20.30;99.90;;;19.25;50.38;95799.88;10429884;28;2062;-78
2021/09/23 14:58:35;;;;;;;;;;;20.30;99.90;;;19.23;50.03;95795.91;10450253;28;2053;-78
2021/09/23 15:03:40;;;;;;;;;;;20.20;99.90;;;19.28;48.35;95799.25;10441002;28;2061;-78
2021/09/23 15:08:43;;;;;;;;;;;20.20;99.90;;;19.16;48.36;95797.22;10456437;28;2079;-79
2021/09/23 15:13:46;;;;;;;;;;;20.20;99.90;;;18.99;49.64;95802.72;10440241;28;1924;-79
2021/09/23 15:18:49;;;;;;;;;;;20.10;99.90;;;18.97;49.66;95793.28;10433140;28;2104;-78
2021/09/23 15:23:53;;;;;;;;;;;20.00;99.90;;;18.95;49.85;95790.09;10468418;28;2009;-77
2021/09/23 15:28:56;;;;;;;;;;;20.00;99.90;;;18.92;50.67;95786.09;10466705;28;1741;-80
2021/09/23 15:33:59;;;;;;;;;;;19.90;99.90;;;18.93;50.66;95784.16;10457194;28;2066;-78
2021/09/23 15:39:02;;;;;;;;;;;19.90;99.90;;;18.79;51.60;95781.66;10477405;28;1956;-77
2021/09/23 15:44:05;;;;;;;;;;;19.80;99.90;;;18.68;51.89;95781.22;10482345;28;1888;-77
2021/09/23 15:49:08;;;;;;;;;;;19.80;99.90;;;18.61;52.84;95780.88;10489159;28;2234;-79
2021/09/23 15:54:11;;;;;;;;;;;19.70;99.90;;;18.43;53.96;95771.16;10489545;28;2335;-77
2021/09/23 15:59:14;;;;;;;;;;;19.50;99.90;;;18.43;54.09;95762.97;10497998;28;2033;-76
2021/09/23 16:04:17;;;;;;;;;;;19.40;99.90;;;18.33;55.30;95764.94;10488860;28;2129;-75
2021/09/23 16:09:21;;;;;;;;;;;19.40;99.90;;;18.18;56.17;95756.47;10484058;28;2541;-79
2021/09/23 16:14:25;;;;;;;;;;;19.30;99.90;;;18.19;55.71;95758.84;10484887;28;1887;-75
2021/09/23 16:19:31;;;;;;;;;;;19.20;99.90;;;18.07;56.19;95753.31;10477049;28;2056;-77
2021/09/23 16:24:34;;;;;;;;;;;19.10;99.90;;;17.86;57.49;95744.16;10477059;28;2065;-76
2021/09/23 16:29:38;;;;;;;;;;;19.10;99.90;;;17.65;58.30;95755.66;10484587;28;1891;-79
2021/09/23 16:34:44;;;;;;;;;;;18.90;99.90;;;17.41;58.66;95744.44;10485027;28;2017;-79
2021/09/23 16:39:47;;;;;;;;;;;18.70;99.90;;;17.41;57.65;95745.22;10495463;28;1923;-78
2021/09/23 16:44:51;;;;;;;;;;;18.50;99.90;;;17.22;58.38;95759.09;10496552;28;1828;-77
2021/09/23 16:49:54;;;;;;;;;;;18.40;99.90;;;16.97;59.23;95782.34;10493007;28;2054;-77
2021/09/23 16:54:56;;;;;;;;;;;18.20;99.90;;;16.86;58.73;95788.38;10486172;28;2046;-78
2021/09/23 16:59:59;;;;;;;;;;;18.10;99.90;;;16.82;59.14;95787.41;10483539;28;1973;-78
2021/09/23 17:05:02;;;;;;;;;;;18.00;99.90;;;16.69;58.49;95789.06;10489804;28;2114;-77
2021/09/23 17:10:06;;;;;;;;;;;17.80;99.90;;;16.44;59.21;95790.53;10488345;28;2098;-77
2021/09/23 17:15:21;;;;;;;;;;;17.70;99.90;;;16.17;60.03;95786.84;10488316;28;2092;-77
2021/09/23 17:20:26;;;;;;;;;;;17.50;99.90;;;15.87;62.35;95784.88;10488161;28;2022;-77
2021/09/23 17:25:41;;;;;;;;;;;17.20;99.90;;;15.55;64.10;95783.91;10480506;28;2181;-78
2021/09/23 17:30:44;;;;;;;;;;;17.00;99.90;;;15.36;65.16;95780.53;10466639;28;2279;-78
2021/09/23 17:35:47;;;;;;;;;;;16.70;99.90;;;15.19;66.36;95783.88;10482418;28;2029;-78
2021/09/23 17:40:50;;;;;;;;;;;16.50;99.90;;;14.83;68.74;95783.78;10479234;28;1741;-77
2021/09/23 17:45:53;;;;;;;;;;;16.20;99.90;;;14.69;70.41;95778.34;10479236;28;2061;-76
2021/09/23 17:50:56;;;;;;;;;;;16.00;99.90;;;14.63;70.82;95797.69;10482677;28;2066;-78
2021/09/23 17:55:59;;;;;;;;;;;15.90;99.90;;;14.55;72.12;95799.97;10481999;28;1997;-79
2021/09/23 18:01:02;;;;;;;;;;;15.90;99.90;;;14.57;72.14;95803.22;10471110;28;2099;-77
2021/09/23 18:06:05;;;;;;;;;;;15.80;99.90;;;14.40;73.62;95802.94;10467580;28;2091;-78
2021/09/23 18:11:15;;;;;;;;;;;15.70;99.90;;;14.30;74.45;95797.69;10474751;28;1733;-77
2021/09/23 18:16:17;;;;;;;;;;;15.60;99.90;;;14.20;75.04;95790.56;10472136;28;2121;-78
2021/09/23 18:21:20;;;;;;;;;;;15.40;99.90;;;14.10;75.68;95789.91;10491807;28;1953;-76
2021/09/23 18:26:23;;;;;;;;;;;15.30;99.90;;;14.15;75.70;95789.84;10487315;28;2143;-78
2021/09/23 18:31:27;;;;;;;;;;;15.30;99.90;;;14.12;75.50;95795.81;10483663;28;1966;-78
2021/09/23 18:36:31;;;;;;;;;;;15.30;99.90;;;14.10;75.87;95798.81;10468356;28;2021;-78
2021/09/23 18:41:34;;;;;;;;;;;15.30;99.90;;;14.00;75.76;95793.59;10472949;28;1785;-77
2021/09/23 18:46:37;;;;;;;;;;;15.20;99.90;;;13.95;75.99;95802.56;10471605;28;1793;-80
2021/09/23 18:51:40;;;;;;;;;;;15.20;99.90;;;13.81;76.34;95792.81;10458538;28;2067;-80
2021/09/23 18:56:42;;;;;;;;;;;15.00;99.90;;;13.86;76.25;95787.31;10448158;28;1957;-82
2021/09/23 19:01:48;;;;;;;;;;;15.00;99.90;;;13.77;76.23;95789.88;10446585;28;2068;-80
2021/09/23 19:06:51;;;;;;;;;;;14.90;99.90;;;13.72;76.13;95796.16;10465652;28;2033;-79
2021/09/23 19:11:55;;;;;;;;;;;14.90;99.90;;;13.73;76.10;95799.66;10456315;28;2085;-79
2021/09/23 19:17:03;;;;;;;;;;;14.80;99.90;;;13.69;75.45;95809.47;10447086;28;2090;-77
2021/09/23 19:22:06;;;;;;;;;;;14.80;99.90;;;13.55;76.57;95795.88;10456850;28;2134;-78
2021/09/23 19:27:09;;;;;;;;;;;14.80;99.90;;;13.52;76.65;95799.94;10441449;28;1999;-79
2021/09/23 19:32:13;;;;;;;;;;;14.70;99.90;;;13.50;76.57;95804.06;10449192;28;2302;-78
2021/09/23 19:37:18;;;;;;;;;;;14.60;99.90;;;13.48;75.94;95814.31;10424633;28;2142;-79
2021/09/23 19:42:21;;;;;;;;;;;14.60;99.90;;;13.33;76.50;95812.63;10438883;28;2192;-79
2021/09/23 19:47:24;;;;;;;;;;;14.50;99.90;;;13.32;75.83;95800.25;10441948;28;2173;-78
2021/09/23 19:52:27;;;;;;;;;;;14.50;99.90;;;13.35;75.91;95805.03;10470034;28;1789;-79
2021/09/23 19:57:30;;;;;;;;;;;14.50;99.90;;;13.38;75.56;95807.19;10485114;28;1987;-78
2021/09/23 20:02:33;;;;;;;;;;;14.50;99.90;;;13.27;75.83;95808.41;10489685;28;1757;-78
2021/09/23 20:07:36;;;;;;;;;;;14.40;99.90;;;13.31;75.51;95803.22;10507371;28;1951;-79
2021/09/23 20:12:39;;;;;;;;;;;14.40;99.90;;;13.31;75.46;95804.03;10506663;28;1734;-78
2021/09/23 20:17:42;;;;;;;;;;;14.40;99.90;;;13.34;75.88;95816.94;10481425;28;1930;-79
2021/09/23 20:22:45;;;;;;;;;;;14.40;99.90;;;13.37;75.74;95813.69;10452885;28;2045;-80
2021/09/23 20:27:48;;;;;;;;;;;14.40;99.90;;;13.42;75.43;95816.31;10459191;28;1922;-78
2021/09/23 20:32:50;;;;;;;;;;;14.40;99.90;;;13.39;75.07;95843.88;10469698;28;2058;-77
2021/09/23 20:37:53;;;;;;;;;;;14.50;99.90;;;13.33;75.84;95853.13;10432082;28;2126;-81
2021/09/23 20:42:57;;;;;;;;;;;14.50;99.90;;;13.24;76.10;95866.47;10453760;28;2097;-79
2021/09/23 20:47:59;;;;;;;;;;;14.50;99.90;;;13.18;77.26;95866.78;10474712;28;1809;-77
2021/09/23 20:53:02;;;;;;;;;;;14.40;99.90;;;13.10;77.67;95864.69;10466070;28;2034;-78
2021/09/23 20:58:15;;;;;;;;;;;14.30;99.90;;;13.02;77.94;95868.03;10481940;28;2307;-78
2021/09/23 21:03:18;;;;;;;;;;;14.20;99.90;;;12.82;79.86;95859.06;10495194;28;1939;-75
2021/09/23 21:08:21;;;;;;;;;;;14.10;99.90;;;12.80;80.67;95858.56;10502105;28;1947;-77
2021/09/23 21:13:24;;;;;;;;;;;14.00;99.90;;;12.74;81.48;95859.69;10487458;28;2311;-75
2021/09/23 21:18:27;;;;;;;;;;;13.90;99.90;;;12.73;82.47;95858.09;10473199;28;1894;-78
2021/09/23 21:23:30;;;;;;;;;;;13.90;99.90;;;12.80;82.22;95858.56;10456238;28;2141;-76
2021/09/23 21:28:33;;;;;;;;;;;13.90;99.90;;;12.90;81.33;95852.25;10437270;28;2115;-77
2021/09/23 21:33:36;;;;;;;;;;;14.00;99.90;;;12.97;81.61;95875.09;10474642;28;2060;-77
2021/09/23 21:38:39;;;;;;;;;;;14.00;99.90;;;12.70;83.15;95875.63;10461772;28;2005;-77
2021/09/23 21:43:42;;;;;;;;;;;14.00;99.90;;;12.73;83.34;95871.59;10472418;28;2119;-77
2021/09/23 21:48:45;;;;;;;;;;;13.90;99.90;;;12.61;83.35;95871.16;10469956;28;2077;-76
2021/09/23 21:53:48;;;;;;;;;;;13.80;99.90;;;12.62;83.75;95870.06;10469072;28;2014;-77
2021/09/23 21:58:51;;;;;;;;;;;13.80;99.90;;;12.60;83.66;95877.63;10472304;28;1971;-78
2021/09/23 22:03:54;;;;;;;;;;;13.70;99.90;;;12.39;84.80;95868.91;10451226;28;2049;-79
2021/09/23 22:08:57;;;;;;;;;;;13.60;99.90;;;12.39;84.54;95864.31;10469179;28;1994;-78
2021/09/23 22:14:01;;;;;;;;;;;13.50;99.90;;;12.42;83.74;95871.03;10460358;28;1942;-78
2021/09/23 22:19:24;;;;;;;;;;;13.50;99.90;;;12.34;85.25;95882.41;10465934;28;1965;-77
2021/09/23 22:24:27;;;;;;;;;;;13.50;99.90;;;12.47;84.39;95891.75;10462855;28;2037;-79
2021/09/23 22:29:50;;;;;;;;;;;13.60;99.90;;;12.52;84.13;95897.09;10462368;28;2180;-78
2021/09/23 22:34:53;;;;;;;;;;;13.60;99.90;;;12.43;84.68;95891.53;10457522;28;2297;-79
2021/09/23 22:39:56;;;;;;;;;;;13.60;99.90;;;12.40;85.55;95878.59;10469966;28;1931;-76
2021/09/23 22:44:59;;;;;;;;;;;13.50;99.90;;;12.45;85.16;95879.34;10464585;28;2113;-80
2021/09/23 22:50:02;;;;;;;;;;;13.50;99.90;;;12.40;85.67;95878.59;10445894;28;1915;-78
2021/09/23 22:55:05;;;;;;;;;;;13.50;99.90;;;12.39;85.81;95882.38;10459052;28;2127;-77
2021/09/23 23:00:08;;;;;;;;;;;13.50;99.90;;;12.34;86.18;95875.16;10474603;28;1928;-77
2021/09/23 23:05:11;;;;;;;;;;;13.50;99.90;;;12.28;86.71;95881.69;10461717;28;1750;-77
2021/09/23 23:10:14;;;;;;;;;;;13.40;99.90;;;12.29;86.82;95885.16;10459020;28;2064;-79
2021/09/23 23:15:17;;;;;;;;;;;13.40;99.90;;;12.21;87.19;95885.75;10454375;28;2362;-80
2021/09/23 23:20:19;;;;;;;;;;;13.40;99.90;;;12.28;87.09;95888.94;10433804;28;2154;-76